Station Historical Data
Daily Summary for August 12, 2017 Units:  English    Metric   Both
« Previous Day
Next Day »
Daily Weekly Monthly Yearly Custom
  High: Low: Average:
Temperature: 88.1 °F 71.7 °F 78 °F
Dew Point: 74.8 °F 69.9 °F 72.2 °F
Humidity: 94% 60% 83%
Wind Speed: 1.0mph 0.0mph 0mph
Wind Gust: 5.0mph - -
Wind- - SSW
Pressure: 29.99 in 29.90 in -
Precipitation: 0.00 in    
Historical Graphs
 
 
Tabular Data for August 12, 2017
Time Temperature Dew Point Pressure Wind Wind Speed Wind Gust Humidity Rainfall Rate (Hourly) solar Conditions
00:00 74.4 °F 71.9 °F 29.98 in Calm     92% 0.00 in WeatherDisplay:10.37 W/m2 BKN
00:05 74.4 °F 71.9 °F 29.98 in Calm     92% 0.00 in WeatherDisplay:10.37 W/m2 BKN
00:10 74.4 °F 71.9 °F 29.98 in Calm     92% 0.00 in WeatherDisplay:10.37 W/m2 BKN
00:15 74.4 °F 71.9 °F 29.97 in Calm     92% 0.00 in WeatherDisplay:10.37 W/m2 BKN
00:20 74.4 °F 71.9 °F 29.97 in Calm     92% 0.00 in WeatherDisplay:10.37 W/m2 BKN
00:30 74.3 °F 71.8 °F 29.97 in Calm     92% 0.00 in WeatherDisplay:10.37 W/m2 BKN
00:35 74.2 °F 71.7 °F 29.97 in Calm     92% 0.00 in WeatherDisplay:10.37 W/m2 BKN
00:40 74.2 °F 71.7 °F 29.97 in Calm     92% 0.00 in WeatherDisplay:10.37 W/m2 BKN
00:45 74.1 °F 71.6 °F 29.97 in Calm     92% 0.00 in WeatherDisplay:10.37 W/m2 BKN
00:50 74.0 °F 71.5 °F 29.97 in Calm     92% 0.00 in WeatherDisplay:10.37 W/m2 BKN
00:55 74.0 °F 71.5 °F 29.97 in Calm     92% 0.00 in WeatherDisplay:10.37 W/m2 BKN
01:00 73.9 °F 71.4 °F 29.97 in Calm     92% 0.00 in WeatherDisplay:10.37 W/m2 BKN
01:05 73.8 °F 71.4 °F 29.97 in Calm     92% 0.00 in WeatherDisplay:10.37 W/m2 BKN
01:10 73.8 °F 71.3 °F 29.97 in Calm     92% 0.00 in WeatherDisplay:10.37 W/m2 BKN
01:15 73.7 °F 71.2 °F 29.97 in Calm     92% 0.00 in WeatherDisplay:10.37 W/m2 BKN
01:20 73.7 °F 71.2 °F 29.97 in Calm     92% 0.00 in WeatherDisplay:10.37 W/m2 CLR
01:25 73.6 °F 71.1 °F 29.97 in Calm     92% 0.00 in WeatherDisplay:10.37 W/m2 CLR
01:30 73.6 °F 71.1 °F 29.97 in Calm     92% 0.00 in WeatherDisplay:10.37 W/m2 CLR
01:35 73.6 °F 71.4 °F 29.97 in Calm     93% 0.00 in WeatherDisplay:10.37 W/m2 CLR
01:40 73.5 °F 71.4 °F 29.97 in Calm     93% 0.00 in WeatherDisplay:10.37 W/m2 CLR
01:45 73.4 °F 70.9 °F 29.97 in Calm     92% 0.00 in WeatherDisplay:10.37 W/m2 CLR
01:50 73.3 °F 70.8 °F 29.97 in Calm     92% 0.00 in WeatherDisplay:10.37 W/m2 CLR
01:55 73.2 °F 70.7 °F 29.97 in Calm     92% 0.00 in WeatherDisplay:10.37 W/m2 CLR
02:00 73.2 °F 71.1 °F 29.97 in Calm     93% 0.00 in WeatherDisplay:10.37 W/m2 CLR
02:05 73.2 °F 71.1 °F 29.97 in Calm     93% 0.00 in WeatherDisplay:10.37 W/m2 CLR
02:10 73.1 °F 71.0 °F 29.97 in Calm     93% 0.00 in WeatherDisplay:10.37 W/m2 CLR
02:15 73.2 °F 71.1 °F 29.97 in Calm     93% 0.00 in WeatherDisplay:10.37 W/m2 CLR
02:20 73.1 °F 71.0 °F 29.97 in Calm     93% 0.00 in WeatherDisplay:10.37 W/m2 CLR
02:25 73.1 °F 71.0 °F 29.97 in Calm     93% 0.00 in WeatherDisplay:10.37 W/m2 CLR
02:30 73.1 °F 71.0 °F 29.97 in Calm     93% 0.00 in WeatherDisplay:10.37 W/m2 CLR
02:35 73.0 °F 70.9 °F 29.97 in Calm     93% 0.00 in WeatherDisplay:10.37 W/m2 CLR
02:40 73.1 °F 71.0 °F 29.97 in Calm     93% 0.00 in WeatherDisplay:10.37 W/m2 CLR
02:45 73.2 °F 71.1 °F 29.97 in Calm     93% 0.00 in WeatherDisplay:10.37 W/m2 CLR
02:50 73.3 °F 71.2 °F 29.97 in Calm     93% 0.00 in WeatherDisplay:10.37 W/m2 CLR
02:55 73.2 °F 71.1 °F 29.97 in Calm     93% 0.00 in WeatherDisplay:10.37 W/m2 CLR
03:00 73.0 °F 70.9 °F 29.97 in Calm     93% 0.00 in WeatherDisplay:10.37 W/m2 CLR
03:05 72.9 °F 70.7 °F 29.97 in Calm     93% 0.00 in WeatherDisplay:10.37 W/m2 CLR
03:10 72.7 °F 70.6 °F 29.97 in Calm     93% 0.00 in WeatherDisplay:10.37 W/m2 CLR
03:15 72.6 °F 70.5 °F 29.97 in Calm     93% 0.00 in WeatherDisplay:10.37 W/m2 CLR
03:20 72.5 °F 70.4 °F 29.97 in Calm     93% 0.00 in WeatherDisplay:10.37 W/m2 CLR
03:25 72.5 °F 70.4 °F 29.97 in Calm     93% 0.00 in WeatherDisplay:10.37 W/m2 CLR
03:30 72.6 °F 70.5 °F 29.97 in Calm     93% 0.00 in WeatherDisplay:10.37 W/m2 CLR
03:35 72.6 °F 70.5 °F 29.96 in Calm     93% 0.00 in WeatherDisplay:10.37 W/m2 CLR
03:40 72.8 °F 70.6 °F 29.96 in Calm     93% 0.00 in WeatherDisplay:10.37 W/m2 CLR
03:45 72.9 °F 70.7 °F 29.96 in Calm     93% 0.00 in WeatherDisplay:10.37 W/m2 CLR
03:50 72.9 °F 70.8 °F 29.96 in Calm     93% 0.00 in WeatherDisplay:10.37 W/m2 CLR
03:55 73.0 °F 71.2 °F 29.96 in Calm     94% 0.00 in WeatherDisplay:10.37 W/m2 CLR
04:00 73.1 °F 71.0 °F 29.96 in Calm     93% 0.00 in WeatherDisplay:10.37 W/m2 CLR
04:05 73.2 °F 71.3 °F 29.96 in Calm     94% 0.00 in WeatherDisplay:10.37 W/m2 CLR
04:10 73.2 °F 71.4 °F 29.96 in Calm     94% 0.00 in WeatherDisplay:10.37 W/m2 CLR
04:15 73.3 °F 71.4 °F 29.96 in Calm     94% 0.00 in WeatherDisplay:10.37 W/m2 CLR
04:20 73.3 °F 71.5 °F 29.96 in Calm     94% 0.00 in WeatherDisplay:10.37 W/m2 FEW
04:25 73.3 °F 71.5 °F 29.96 in Calm     94% 0.00 in WeatherDisplay:10.37 W/m2 FEW
04:30 73.4 °F 71.6 °F 29.96 in Calm     94% 0.00 in WeatherDisplay:10.37 W/m2 FEW
04:35 73.4 °F 71.6 °F 29.96 in Calm     94% 0.00 in WeatherDisplay:10.37 W/m2 FEW
04:40 73.4 °F 71.6 °F 29.96 in Calm     94% 0.00 in WeatherDisplay:10.37 W/m2 FEW
04:45 73.4 °F 71.6 °F 29.96 in Calm     94% 0.00 in WeatherDisplay:10.37 W/m2 FEW
04:50 73.3 °F 71.5 °F 29.96 in Calm     94% 0.00 in WeatherDisplay:10.37 W/m2 BKN
04:55 73.3 °F 71.2 °F 29.95 in Calm     93% 0.00 in WeatherDisplay:10.37 W/m2 BKN
05:00 73.2 °F 71.1 °F 29.96 in Calm     93% 0.00 in WeatherDisplay:10.37 W/m2 BKN
05:05 73.1 °F 71.0 °F 29.96 in Calm     93% 0.00 in WeatherDisplay:10.37 W/m2 BKN
05:10 73.0 °F 70.9 °F 29.96 in Calm     93% 0.00 in WeatherDisplay:10.37 W/m2 BKN
05:15 72.9 °F 70.8 °F 29.96 in Calm     93% 0.00 in WeatherDisplay:10.37 W/m2 BKN
05:25 72.7 °F 70.6 °F 29.95 in Calm     93% 0.00 in WeatherDisplay:10.37 W/m2 SCT
05:30 72.7 °F 70.6 °F 29.95 in Calm     93% 0.00 in WeatherDisplay:10.37 W/m2 SCT
05:35 72.6 °F 70.5 °F 29.95 in Calm     93% 0.00 in WeatherDisplay:10.37 W/m2 SCT
05:40 72.5 °F 70.4 °F 29.95 in Calm     93% 0.00 in WeatherDisplay:10.37 W/m2 SCT
05:45 72.4 °F 70.3 °F 29.96 in Calm     93% 0.00 in WeatherDisplay:10.37 W/m2 SCT
05:50 72.3 °F 70.2 °F 29.95 in Calm     93% 0.00 in WeatherDisplay:10.37 W/m2 SCT
05:55 72.3 °F 70.2 °F 29.95 in Calm     93% 0.00 in WeatherDisplay:10.37 W/m2 SCT
06:00 72.2 °F 70.1 °F 29.95 in Calm     93% 0.00 in WeatherDisplay:10.37 W/m2 SCT
06:05 72.2 °F 70.1 °F 29.95 in Calm     93% 0.00 in WeatherDisplay:10.37 W/m2 SCT
06:10 72.1 °F 70.0 °F 29.95 in Calm     93% 0.00 in WeatherDisplay:10.37 W/m2 SCT
06:15 72.0 °F 69.9 °F 29.95 in Calm     93% 0.00 in WeatherDisplay:10.37 W/m2 SCT
06:25 71.9 °F 70.1 °F 29.95 in Calm     94% 0.00 in WeatherDisplay:10.37 W/m2 SCT
06:30 71.9 °F 70.1 °F 29.95 in Calm     94% 0.00 in WeatherDisplay:10.37 W/m2 SCT
06:35 71.8 °F 70.0 °F 29.96 in Calm     94% 0.00 in WeatherDisplay:10.37 W/m2 SCT
06:40 71.8 °F 70.0 °F 29.96 in Calm     94% 0.00 in WeatherDisplay:10.37 W/m2 SCT
06:45 71.8 °F 70.0 °F 29.96 in Calm     94% 0.00 in WeatherDisplay:10.37 W/m2 SCT
06:50 71.8 °F 70.0 °F 29.96 in Calm     94% 0.00 in WeatherDisplay:10.37 W/m2 SCT
06:55 71.8 °F 70.0 °F 29.96 in Calm     94% 0.00 in WeatherDisplay:10.37 W/m2 SCT
07:00 71.8 °F 70.0 °F 29.97 in Calm     94% 0.00 in WeatherDisplay:10.37 W/m2 SCT
07:05 71.8 °F 70.0 °F 29.97 in Calm     94% 0.00 in WeatherDisplay:10.37 W/m2 SCT
07:10 71.8 °F 70.0 °F 29.97 in Calm     94% 0.00 in WeatherDisplay:10.37 W/m2 SCT
07:15 71.8 °F 70.0 °F 29.97 in Calm     94% 0.00 in WeatherDisplay:10.37 W/m2 SCT
07:20 71.8 °F 69.9 °F 29.97 in Calm     94% 0.00 in WeatherDisplay:10.37 W/m2 BKN
07:25 71.7 °F 69.9 °F 29.97 in Calm     94% 0.00 in WeatherDisplay:10.37 W/m2 BKN
07:30 71.7 °F 69.9 °F 29.97 in Calm     94% 0.00 in WeatherDisplay:10.37 W/m2 BKN
07:35 71.8 °F 70.0 °F 29.97 in Calm     94% 0.00 in WeatherDisplay:10.37 W/m2 BKN
07:40 71.8 °F 70.0 °F 29.97 in Calm     94% 0.00 in WeatherDisplay:10.37 W/m2 BKN
07:45 71.9 °F 70.1 °F 29.97 in Calm     94% 0.00 in WeatherDisplay:10.37 W/m2 BKN
07:50 72.0 °F 70.2 °F 29.98 in Calm     94% 0.00 in WeatherDisplay:10.37 W/m2 BKN
07:55 72.2 °F 70.3 °F 29.98 in Calm     94% 0.00 in WeatherDisplay:10.37 W/m2 BKN
08:00 72.3 °F 70.5 °F 29.98 in Calm     94% 0.00 in WeatherDisplay:10.37 W/m2 BKN
08:05 72.6 °F 70.7 °F 29.98 in Calm     94% 0.00 in WeatherDisplay:10.37 W/m2 BKN
08:10 72.7 °F 70.9 °F 29.98 in Calm     94% 0.00 in WeatherDisplay:10.37 W/m2 BKN
08:15 73.0 °F 71.2 °F 29.98 in Calm     94% 0.00 in WeatherDisplay:10.37 W/m2 BKN
08:20 73.3 °F 71.5 °F 29.99 in Calm     94% 0.00 in WeatherDisplay:10.37 W/m2 SCT
08:25 73.5 °F 71.7 °F 29.99 in Calm     94% 0.00 in WeatherDisplay:10.37 W/m2 SCT
08:30 73.7 °F 71.9 °F 29.99 in Calm   1.0 mph 94% 0.00 in WeatherDisplay:10.37 W/m2 SCT
08:35 73.8 °F 72.0 °F 29.99 in Calm   1.0 mph 94% 0.00 in WeatherDisplay:10.37 W/m2 SCT
08:40 73.9 °F 72.1 °F 29.99 in Calm   1.0 mph 94% 0.00 in WeatherDisplay:10.37 W/m2 SCT
08:45 74.0 °F 72.2 °F 29.99 in Calm     94% 0.00 in WeatherDisplay:10.37 W/m2 SCT
08:50 74.2 °F 72.4 °F 29.99 in Calm   1.0 mph 94% 0.00 in WeatherDisplay:10.37 W/m2 SCT
08:55 74.4 °F 72.6 °F 29.99 in Calm   3.0 mph 94% 0.00 in WeatherDisplay:10.37 W/m2 SCT
09:00 74.5 °F 72.7 °F 29.99 in Calm   1.0 mph 94% 0.00 in WeatherDisplay:10.37 W/m2 SCT
09:10 74.7 °F 72.6 °F 29.99 in Calm     93% 0.00 in WeatherDisplay:10.37 W/m2 BKN
09:15 74.9 °F 72.7 °F 29.99 in Calm     93% 0.00 in WeatherDisplay:10.37 W/m2 BKN
09:20 75.0 °F 72.5 °F 29.99 in Calm     92% 0.00 in WeatherDisplay:10.37 W/m2 OVC
09:25 75.1 °F 72.6 °F 29.99 in Calm   1.0 mph 92% 0.00 in WeatherDisplay:10.37 W/m2 OVC
09:30 75.5 °F 73.0 °F 29.99 in Calm   1.0 mph 92% 0.00 in WeatherDisplay:10.37 W/m2 OVC
09:40 75.8 °F 72.7 °F 29.99 in Calm   1.0 mph 90% 0.00 in WeatherDisplay:10.37 W/m2 OVC
09:45 75.9 °F 72.8 °F 29.98 in Calm   2.0 mph 90% 0.00 in WeatherDisplay:10.37 W/m2 OVC
09:50 76.3 °F 73.1 °F 29.98 in Calm   2.0 mph 90% 0.00 in WeatherDisplay:10.37 W/m2 OVC
09:55 76.7 °F 72.9 °F 29.98 in Calm   3.0 mph 88% 0.00 in WeatherDisplay:10.37 W/m2 OVC
10:00 77.3 °F 73.4 °F 29.98 in Calm     88% 0.00 in WeatherDisplay:10.37 W/m2 OVC
10:05 77.9 °F 73.7 °F 29.98 in Calm     87% 0.00 in WeatherDisplay:10.37 W/m2 BKN
10:10 78.2 °F 73.3 °F 29.98 in Calm     85% 0.00 in WeatherDisplay:10.37 W/m2 BKN
10:15 78.5 °F 73.6 °F 29.98 in Calm     85% 0.00 in WeatherDisplay:10.37 W/m2 BKN
10:20 78.9 °F 73.6 °F 29.98 in Calm     84% 0.00 in WeatherDisplay:10.37 W/m2 OVC
10:25 78.8 °F 73.2 °F 29.97 in Calm     83% 0.00 in WeatherDisplay:10.37 W/m2 OVC
10:30 78.9 °F 73.7 °F 29.97 in Calm     84% 0.00 in WeatherDisplay:10.37 W/m2 OVC
10:35 79.1 °F 73.1 °F 29.98 in Calm     82% 0.00 in WeatherDisplay:10.37 W/m2 OVC
10:40 79.0 °F 73.0 °F 29.98 in Calm   1.0 mph 82% 0.00 in WeatherDisplay:10.37 W/m2 OVC
10:45 78.9 °F 73.0 °F 29.98 in Calm   2.0 mph 82% 0.00 in WeatherDisplay:10.37 W/m2 OVC
10:50 79.3 °F 73.7 °F 29.98 in Calm   1.0 mph 83% 0.00 in WeatherDisplay:10.37 W/m2 BKN
10:55 79.5 °F 73.5 °F 29.98 in Calm   1.0 mph 82% 0.00 in WeatherDisplay:10.37 W/m2 BKN
11:00 79.4 °F 73.1 °F 29.98 in Calm   1.0 mph 81% 0.00 in WeatherDisplay:10.37 W/m2 BKN
11:10 79.7 °F 73.0 °F 29.98 in Calm   1.0 mph 80% 0.00 in WeatherDisplay:10.37 W/m2 BKN
11:15 80.0 °F 73.2 °F 29.98 in Calm   2.0 mph 80% 0.00 in WeatherDisplay:10.37 W/m2 BKN
11:20 80.3 °F 73.9 °F 29.98 in Calm   1.0 mph 81% 0.00 in WeatherDisplay:10.37 W/m2 BKN
11:25 80.4 °F 73.7 °F 29.98 in NNE 1.0 mph 3.0 mph 80% 0.00 in WeatherDisplay:10.37 W/m2 BKN
11:30 80.5 °F 73.4 °F 29.98 in SW 1.0 mph 2.0 mph 79% 0.00 in WeatherDisplay:10.37 W/m2 BKN
11:35 80.9 °F 73.0 °F 29.98 in SSW 1.0 mph 3.0 mph 77% 0.00 in WeatherDisplay:10.37 W/m2 BKN
11:40 81.0 °F 72.3 °F 29.98 in Calm   2.0 mph 75% 0.00 in WeatherDisplay:10.37 W/m2 BKN
11:45 81.3 °F 73.4 °F 29.98 in SW 1.0 mph 3.0 mph 77% 0.00 in WeatherDisplay:10.37 W/m2 BKN
11:50 81.6 °F 73.3 °F 29.98 in Calm   2.0 mph 76% 0.00 in WeatherDisplay:10.37 W/m2 BKN
11:55 82.1 °F 72.6 °F 29.98 in SE 1.0 mph 2.0 mph 73% 0.00 in WeatherDisplay:10.37 W/m2 BKN
12:00 82.4 °F 73.7 °F 29.98 in Calm   1.0 mph 75% 0.00 in WeatherDisplay:10.37 W/m2 BKN
12:05 82.8 °F 73.3 °F 29.97 in Calm   2.0 mph 73% 0.00 in WeatherDisplay:10.37 W/m2 BKN
12:10 83.1 °F 73.5 °F 29.97 in Calm   1.0 mph 73% 0.00 in WeatherDisplay:10.37 W/m2 BKN
12:15 83.2 °F 73.2 °F 29.97 in Calm   1.0 mph 72% 0.00 in WeatherDisplay:10.37 W/m2 BKN
12:20 83.2 °F 73.3 °F 29.97 in Calm   1.0 mph 72% 0.00 in WeatherDisplay:10.37 W/m2 BKN
12:25 83.7 °F 72.0 °F 29.97 in WSW 1.0 mph 2.0 mph 68% 0.00 in WeatherDisplay:10.37 W/m2 BKN
12:30 84.2 °F 73.8 °F 29.97 in Calm   1.0 mph 71% 0.00 in WeatherDisplay:10.37 W/m2 BKN
12:35 84.5 °F 72.8 °F 29.97 in Calm   1.0 mph 68% 0.00 in WeatherDisplay:10.37 W/m2 BKN
12:40 84.4 °F 73.5 °F 29.97 in Calm     70% 0.00 in WeatherDisplay:10.37 W/m2 BKN
12:45 84.3 °F 73.4 °F 29.97 in Calm     70% 0.00 in WeatherDisplay:10.37 W/m2 BKN
12:50 84.5 °F 73.7 °F 29.97 in Calm   2.0 mph 70% 0.00 in WeatherDisplay:10.37 W/m2 BKN
12:55 84.5 °F 72.8 °F 29.97 in Calm   1.0 mph 68% 0.00 in WeatherDisplay:10.37 W/m2 BKN
13:00 84.2 °F 73.3 °F 29.97 in Calm   1.0 mph 70% 0.00 in WeatherDisplay:10.37 W/m2 BKN
13:05 84.1 °F 74.1 °F 29.96 in Calm   2.0 mph 72% 0.00 in WeatherDisplay:10.37 W/m2 BKN
13:10 84.7 °F 72.9 °F 29.96 in Calm   1.0 mph 68% 0.00 in WeatherDisplay:10.37 W/m2 BKN
13:15 85.0 °F 73.7 °F 29.96 in Calm   1.0 mph 69% 0.00 in WeatherDisplay:10.37 W/m2 BKN
13:20 85.3 °F 73.6 °F 29.96 in Calm     68% 0.00 in WeatherDisplay:10.37 W/m2 BKN
13:25 85.7 °F 74.8 °F 29.96 in Calm     70% 0.00 in WeatherDisplay:10.37 W/m2 BKN
13:30 85.9 °F 73.7 °F 29.96 in WSW 1.0 mph 2.0 mph 67% 0.00 in WeatherDisplay:10.37 W/m2 BKN
13:35 86.4 °F 73.6 °F 29.96 in Calm   1.0 mph 66% 0.00 in WeatherDisplay:10.37 W/m2 BKN
13:40 86.8 °F 73.6 °F 29.96 in Calm   2.0 mph 65% 0.00 in WeatherDisplay:10.37 W/m2 BKN
13:45 87.0 °F 73.3 °F 29.96 in Calm   1.0 mph 64% 0.00 in WeatherDisplay:10.37 W/m2 BKN
13:50 86.8 °F 73.7 °F 29.96 in Calm   1.0 mph 65% 0.00 in WeatherDisplay:10.37 W/m2 BKN
13:55 86.8 °F 73.1 °F 29.95 in Calm   2.0 mph 64% 0.00 in WeatherDisplay:10.37 W/m2 BKN
14:00 87.3 °F 74.1 °F 29.95 in Calm   3.0 mph 65% 0.00 in WeatherDisplay:10.37 W/m2 BKN
14:10 87.9 °F 74.2 °F 29.95 in Calm   1.0 mph 64% 0.00 in WeatherDisplay:10.37 W/m2 BKN
14:15 88.1 °F 72.9 °F 29.95 in Calm   1.0 mph 61% 0.00 in WeatherDisplay:10.37 W/m2 BKN
14:20 88.1 °F 73.0 °F 29.95 in South 1.0 mph 5.0 mph 61% 0.00 in WeatherDisplay:10.37 W/m2 BKN
14:30 87.3 °F 72.7 °F 29.95 in Calm   1.0 mph 62% 0.00 in WeatherDisplay:10.37 W/m2 BKN
14:40 86.5 °F 73.8 °F 29.95 in WSW 1.0 mph 2.0 mph 66% 0.00 in WeatherDisplay:10.37 W/m2 BKN
14:45 86.1 °F 73.0 °F 29.95 in Calm   1.0 mph 65% 0.00 in WeatherDisplay:10.37 W/m2 BKN
14:50 85.9 °F 72.8 °F 29.94 in Calm     65% 0.00 in WeatherDisplay:10.37 W/m2 BKN
14:55 85.9 °F 73.7 °F 29.94 in Calm     67% 0.00 in WeatherDisplay:10.37 W/m2 BKN
15:00 86.0 °F 73.8 °F 29.94 in Calm   1.0 mph 67% 0.00 in WeatherDisplay:10.37 W/m2 BKN
15:05 86.3 °F 74.0 °F 29.94 in Calm   1.0 mph 67% 0.00 in WeatherDisplay:10.37 W/m2 BKN
15:10 86.5 °F 72.9 °F 29.94 in WSW 1.0 mph 2.0 mph 64% 0.00 in WeatherDisplay:10.37 W/m2 BKN
15:15 86.7 °F 71.6 °F 29.93 in Calm   3.0 mph 61% 0.00 in WeatherDisplay:10.37 W/m2 BKN
15:20 86.9 °F 71.9 °F 29.93 in Calm   2.0 mph 61% 0.00 in WeatherDisplay:10.37 W/m2 BKN
15:25 87.0 °F 71.4 °F 29.93 in Calm   1.0 mph 60% 0.00 in WeatherDisplay:10.37 W/m2 BKN
15:30 86.9 °F 72.8 °F 29.93 in Calm   1.0 mph 63% 0.00 in WeatherDisplay:10.37 W/m2 BKN
15:35 86.7 °F 73.1 °F 29.93 in Calm   1.0 mph 64% 0.00 in WeatherDisplay:10.37 W/m2 BKN
15:40 86.5 °F 71.9 °F 29.92 in Calm     62% 0.00 in WeatherDisplay:10.37 W/m2 BKN
15:45 86.3 °F 71.7 °F 29.92 in Calm     62% 0.00 in WeatherDisplay:10.37 W/m2 BKN
15:50 86.0 °F 71.0 °F 29.92 in Calm     61% 0.00 in WeatherDisplay:10.37 W/m2 BKN
15:55 86.1 °F 72.0 °F 29.92 in Calm     63% 0.00 in WeatherDisplay:10.37 W/m2 BKN
16:00 86.1 °F 73.4 °F 29.92 in Calm     66% 0.00 in WeatherDisplay:10.37 W/m2 BKN
16:05 85.9 °F 71.8 °F 29.92 in Calm     63% 0.00 in WeatherDisplay:10.37 W/m2 BKN
16:10 85.7 °F 73.0 °F 29.92 in Calm     66% 0.00 in WeatherDisplay:10.37 W/m2 BKN
16:15 85.7 °F 71.7 °F 29.92 in Calm     63% 0.00 in WeatherDisplay:10.37 W/m2 BKN
16:20 85.8 °F 72.2 °F 29.92 in Calm     64% 0.00 in WeatherDisplay:10.37 W/m2 BKN
16:25 85.8 °F 72.7 °F 29.92 in Calm     65% 0.00 in WeatherDisplay:10.37 W/m2 BKN
16:30 85.6 °F 74.3 °F 29.91 in Calm     69% 0.00 in WeatherDisplay:10.37 W/m2 BKN
16:35 85.3 °F 74.0 °F 29.91 in Calm     69% 0.00 in WeatherDisplay:10.37 W/m2 BKN
16:40 85.3 °F 73.6 °F 29.91 in Calm     68% 0.00 in WeatherDisplay:10.37 W/m2 BKN
16:45 85.6 °F 74.3 °F 29.91 in Calm     69% 0.00 in WeatherDisplay:10.37 W/m2 BKN
16:50 85.8 °F 73.1 °F 29.91 in Calm   3.0 mph 66% 0.00 in WeatherDisplay:10.37 W/m2 BKN
16:55 85.8 °F 72.2 °F 29.91 in Calm   2.0 mph 64% 0.00 in WeatherDisplay:10.37 W/m2 BKN
17:00 85.9 °F 71.8 °F 29.90 in Calm   1.0 mph 63% 0.00 in WeatherDisplay:10.37 W/m2 BKN
17:05 86.1 °F 72.9 °F 29.91 in Calm   1.0 mph 65% 0.00 in WeatherDisplay:10.37 W/m2 BKN
17:10 86.3 °F 72.2 °F 29.91 in Calm   2.0 mph 63% 0.00 in WeatherDisplay:10.37 W/m2 BKN
17:15 86.4 °F 72.3 °F 29.91 in Calm   2.0 mph 63% 0.00 in WeatherDisplay:10.37 W/m2 BKN
17:20 85.9 °F 73.2 °F 29.91 in Calm     66% 0.00 in WeatherDisplay:10.37 W/m2 BKN
17:25 85.6 °F 73.4 °F 29.91 in Calm   1.0 mph 67% 0.00 in WeatherDisplay:10.37 W/m2 BKN
17:30 85.3 °F 73.9 °F 29.91 in Calm     69% 0.00 in WeatherDisplay:10.37 W/m2 BKN
17:35 85.0 °F 73.2 °F 29.91 in Calm     68% 0.00 in WeatherDisplay:10.37 W/m2 BKN
17:40 84.8 °F 73.9 °F 29.91 in Calm     70% 0.00 in WeatherDisplay:10.37 W/m2 BKN
17:45 84.5 °F 73.6 °F 29.90 in Calm   1.0 mph 70% 0.00 in WeatherDisplay:10.37 W/m2 BKN
17:50 84.0 °F 74.0 °F 29.90 in Calm     72% 0.00 in WeatherDisplay:10.37 W/m2 BKN
17:55 83.6 °F 73.2 °F 29.91 in ESE 1.0 mph 3.0 mph 71% 0.00 in WeatherDisplay:10.37 W/m2 BKN
18:00 83.1 °F 73.5 °F 29.91 in Calm   1.0 mph 73% 0.00 in WeatherDisplay:10.37 W/m2 BKN
18:05 82.5 °F 73.4 °F 29.91 in Calm   1.0 mph 74% 0.00 in WeatherDisplay:10.37 W/m2 BKN
18:10 81.7 °F 72.6 °F 29.92 in Calm   1.0 mph 74% 0.00 in WeatherDisplay:10.37 W/m2 BKN
18:15 81.1 °F 72.9 °F 29.91 in Calm     76% 0.00 in WeatherDisplay:10.37 W/m2 BKN
18:20 80.7 °F 72.8 °F 29.91 in Calm     77% 0.00 in WeatherDisplay:10.37 W/m2 BKN
18:25 80.4 °F 72.9 °F 29.91 in Calm     78% 0.00 in WeatherDisplay:10.37 W/m2 BKN
18:30 80.1 °F 73.0 °F 29.91 in Calm   1.0 mph 79% 0.00 in WeatherDisplay:10.37 W/m2 BKN
18:35 80.1 °F 73.4 °F 29.91 in Calm     80% 0.00 in WeatherDisplay:10.37 W/m2 BKN
18:40 80.2 °F 73.5 °F 29.91 in Calm     80% 0.00 in WeatherDisplay:10.37 W/m2 BKN
18:45 80.4 °F 73.7 °F 29.91 in Calm     80% 0.00 in WeatherDisplay:10.37 W/m2 BKN
18:50 80.5 °F 73.8 °F 29.92 in Calm     80% 0.00 in WeatherDisplay:10.37 W/m2 -RA
18:55 80.5 °F 73.4 °F 29.92 in Calm     79% 0.00 in WeatherDisplay:10.37 W/m2 -RA
19:00 80.6 °F 73.1 °F 29.92 in Calm     78% 0.00 in WeatherDisplay:10.37 W/m2 -RA
19:10 80.5 °F 73.0 °F 29.92 in Calm   1.0 mph 78% 0.00 in WeatherDisplay:10.37 W/m2 BKN
19:15 80.2 °F 72.7 °F 29.92 in Calm   1.0 mph 78% 0.00 in WeatherDisplay:10.37 W/m2 BKN
19:20 80.1 °F 72.6 °F 29.92 in Calm     78% 0.00 in WeatherDisplay:10.37 W/m2 BKN
19:25 80.1 °F 73.0 °F 29.92 in Calm     79% 0.00 in WeatherDisplay:10.37 W/m2 BKN
19:30 80.0 °F 72.9 °F 29.92 in Calm     79% 0.00 in WeatherDisplay:10.37 W/m2 BKN
19:35 79.8 °F 73.1 °F 29.92 in Calm     80% 0.00 in WeatherDisplay:10.37 W/m2 BKN
19:40 79.7 °F 73.0 °F 29.92 in Calm     80% 0.00 in WeatherDisplay:10.37 W/m2 BKN
19:45 79.5 °F 73.1 °F 29.92 in Calm     81% 0.00 in WeatherDisplay:10.37 W/m2 BKN
19:50 79.3 °F 73.0 °F 29.92 in Calm     81% 0.00 in WeatherDisplay:10.37 W/m2 BKN
19:55 79.2 °F 73.2 °F 29.92 in Calm     82% 0.00 in WeatherDisplay:10.37 W/m2 BKN
20:00 79.0 °F 73.0 °F 29.92 in Calm     82% 0.00 in WeatherDisplay:10.37 W/m2 BKN
20:05 78.9 °F 72.9 °F 29.92 in Calm     82% 0.00 in WeatherDisplay:10.37 W/m2 BKN
20:10 78.7 °F 73.1 °F 29.92 in Calm     83% 0.00 in WeatherDisplay:10.37 W/m2 BKN
20:15 78.5 °F 72.9 °F 29.93 in Calm     83% 0.00 in WeatherDisplay:10.37 W/m2 BKN
20:20 78.5 °F 73.2 °F 29.92 in Calm     84% 0.00 in WeatherDisplay:10.37 W/m2 BKN
20:25 78.3 °F 73.1 °F 29.92 in Calm     84% 0.00 in WeatherDisplay:10.37 W/m2 BKN
20:30 78.2 °F 73.0 °F 29.92 in Calm     84% 0.00 in WeatherDisplay:10.37 W/m2 BKN
20:35 78.1 °F 73.2 °F 29.92 in Calm     85% 0.00 in WeatherDisplay:10.37 W/m2 BKN
20:40 78.0 °F 73.1 °F 29.91 in Calm     85% 0.00 in WeatherDisplay:10.37 W/m2 BKN
20:45 77.9 °F 73.0 °F 29.91 in Calm     85% 0.00 in WeatherDisplay:10.37 W/m2 BKN
20:50 77.8 °F 73.2 °F 29.92 in Calm     86% 0.00 in WeatherDisplay:10.37 W/m2 BKN
20:55 77.6 °F 73.1 °F 29.92 in Calm     86% 0.00 in WeatherDisplay:10.37 W/m2 BKN
21:00 77.5 °F 73.0 °F 29.92 in Calm     86% 0.00 in WeatherDisplay:10.37 W/m2 BKN
21:10 77.2 °F 73.0 °F 29.93 in Calm     87% 0.00 in WeatherDisplay:10.37 W/m2 BKN
21:15 77.0 °F 72.8 °F 29.93 in Calm     87% 0.00 in WeatherDisplay:10.37 W/m2 BKN
21:20 76.8 °F 72.7 °F 29.93 in Calm     87% 0.00 in WeatherDisplay:10.37 W/m2 BKN
21:25 76.7 °F 72.5 °F 29.93 in Calm     87% 0.00 in WeatherDisplay:10.37 W/m2 BKN
21:30 76.6 °F 72.4 °F 29.93 in Calm     87% 0.00 in WeatherDisplay:10.37 W/m2 BKN
21:35 76.5 °F 72.3 °F 29.93 in Calm     87% 0.00 in WeatherDisplay:10.37 W/m2 BKN
21:40 76.4 °F 72.6 °F 29.94 in Calm     88% 0.00 in WeatherDisplay:10.37 W/m2 BKN
21:45 76.3 °F 72.5 °F 29.94 in Calm     88% 0.00 in WeatherDisplay:10.37 W/m2 BKN
21:50 76.2 °F 72.4 °F 29.94 in Calm     88% 0.00 in WeatherDisplay:10.37 W/m2 BKN
21:55 76.2 °F 72.4 °F 29.94 in Calm     88% 0.00 in WeatherDisplay:10.37 W/m2 BKN
22:00 76.1 °F 72.3 °F 29.94 in Calm     88% 0.00 in WeatherDisplay:10.37 W/m2 BKN
22:05 76.0 °F 72.5 °F 29.94 in Calm     89% 0.00 in WeatherDisplay:10.37 W/m2 BKN
22:10 75.9 °F 72.4 °F 29.94 in Calm     89% 0.00 in WeatherDisplay:10.37 W/m2 BKN
22:15 75.8 °F 72.3 °F 29.94 in Calm     89% 0.00 in WeatherDisplay:10.37 W/m2 BKN
22:20 75.8 °F 72.3 °F 29.94 in Calm     89% 0.00 in WeatherDisplay:10.37 W/m2 BKN
22:25 75.7 °F 72.3 °F 29.94 in Calm     89% 0.00 in WeatherDisplay:10.37 W/m2 BKN
22:30 75.7 °F 72.2 °F 29.94 in Calm     89% 0.00 in WeatherDisplay:10.37 W/m2 BKN
22:40 75.7 °F 72.6 °F 29.94 in Calm     90% 0.00 in WeatherDisplay:10.37 W/m2 BKN
22:45 75.7 °F 72.6 °F 29.94 in Calm     90% 0.00 in WeatherDisplay:10.37 W/m2 BKN
22:50 75.7 °F 72.6 °F 29.94 in Calm     90% 0.00 in WeatherDisplay:10.37 W/m2 BKN
22:55 75.7 °F 72.6 °F 29.94 in Calm     90% 0.00 in WeatherDisplay:10.37 W/m2 BKN
23:00 75.7 °F 72.6 °F 29.94 in Calm     90% 0.00 in WeatherDisplay:10.37 W/m2 BKN
23:05 75.7 °F 72.6 °F 29.94 in Calm     90% 0.00 in WeatherDisplay:10.37 W/m2 BKN
23:10 75.7 °F 72.6 °F 29.94 in Calm     90% 0.00 in WeatherDisplay:10.37 W/m2 BKN
23:25 75.7 °F 72.6 °F 29.95 in Calm     90% 0.00 in WeatherDisplay:10.37 W/m2 BKN
23:30 75.7 °F 72.6 °F 29.95 in Calm     90% 0.00 in WeatherDisplay:10.37 W/m2 BKN
23:35 75.6 °F 72.1 °F 29.95 in Calm     89% 0.00 in WeatherDisplay:10.37 W/m2 BKN
23:40 75.6 °F 72.5 °F 29.95 in Calm     90% 0.00 in WeatherDisplay:10.37 W/m2 BKN
23:45 75.6 °F 72.1 °F 29.95 in Calm     89% 0.00 in WeatherDisplay:10.37 W/m2 BKN
23:50 75.5 °F 72.0 °F 29.95 in Calm     89% 0.00 in WeatherDisplay:10.37 W/m2 BKN
23:55 75.5 °F 72.0 °F 29.95 in Calm     89% 0.00 in WeatherDisplay:10.37 W/m2 BKN
Piedmont Bend
Compliments of Weather Underground - 4 mb